createdAt,value
2018-12-21T00:01:36.584Z,10.93
2018-12-21T00:04:05.357Z,9.73
2018-12-21T00:06:34.028Z,6.67
2018-12-21T00:09:03.693Z,9.37
2018-12-21T00:11:32.354Z,11.47
2018-12-21T00:14:00.992Z,9.80
2018-12-21T00:16:30.098Z,10.13
2018-12-21T00:18:58.783Z,14.30
2018-12-21T00:21:27.515Z,9.70
2018-12-21T00:23:56.211Z,11.17
2018-12-21T00:26:25.780Z,11.50
2018-12-21T00:28:54.491Z,11.33
2018-12-21T00:31:28.867Z,7.10
2018-12-21T00:34:02.796Z,10.23
2018-12-21T00:36:36.944Z,10.17
2018-12-21T00:39:12.507Z,9.10
2018-12-21T00:41:40.363Z,11.20
2018-12-21T00:44:28.419Z,9.87
2018-12-21T00:47:01.486Z,8.50
2018-12-21T00:49:30.109Z,7.90
2018-12-21T00:51:58.811Z,6.77
2018-12-21T00:54:27.497Z,7.77
2018-12-21T00:56:56.447Z,11.57
2018-12-21T00:59:25.467Z,7.23
2018-12-21T01:01:54.265Z,7.07
2018-12-21T01:04:23.023Z,13.20
2018-12-21T01:06:51.742Z,6.77
2018-12-21T01:09:20.334Z,8.87
2018-12-21T01:11:48.943Z,11.97
2018-12-21T01:14:17.620Z,5.67
2018-12-21T01:16:46.173Z,7.53
2018-12-21T01:19:15.015Z,10.13
2018-12-21T01:21:43.632Z,13.53
2018-12-21T01:24:12.284Z,8.13
2018-12-21T01:26:40.967Z,9.83
2018-12-21T01:29:09.833Z,8.17
2018-12-21T01:31:38.521Z,8.83
2018-12-21T01:34:07.232Z,6.87
2018-12-21T01:36:35.932Z,7.97
2018-12-21T01:39:06.756Z,8.43
2018-12-21T01:41:35.330Z,7.47
2018-12-21T01:44:04.011Z,8.50
2018-12-21T01:46:32.883Z,8.10
2018-12-21T01:49:01.781Z,5.10
2018-12-21T01:51:31.049Z,9.07
2018-12-21T01:53:59.781Z,10.73
2018-12-21T01:56:29.004Z,9.60
2018-12-21T01:58:57.652Z,10.57
2018-12-21T02:01:26.244Z,8.63
2018-12-21T02:03:54.873Z,7.33
2018-12-21T02:06:23.904Z,4.40
2018-12-21T02:08:52.494Z,10.90
2018-12-21T02:11:21.232Z,7.70
2018-12-21T02:13:49.791Z,6.17
2018-12-21T02:16:18.709Z,5.13
2018-12-21T02:18:47.255Z,6.63
2018-12-21T02:21:16.161Z,5.47
2018-12-21T02:23:44.704Z,7.93
2018-12-21T02:26:13.659Z,5.60
2018-12-21T02:28:42.576Z,4.63
2018-12-21T02:31:11.595Z,6.33
2018-12-21T02:33:40.439Z,5.50
2018-12-21T02:36:09.147Z,4.83
2018-12-21T02:38:38.038Z,5.43
2018-12-21T02:41:07.026Z,4.87
2018-12-21T02:43:35.675Z,6.30
2018-12-21T02:46:04.795Z,4.70
2018-12-21T02:48:33.889Z,5.43
2018-12-21T02:51:03.250Z,4.17
2018-12-21T02:53:32.166Z,5.80
2018-12-21T02:56:01.016Z,5.53
2018-12-21T02:58:29.637Z,5.83
2018-12-21T03:00:58.193Z,5.83
2018-12-21T03:03:26.780Z,6.40
2018-12-21T03:05:55.383Z,7.57
2018-12-21T03:08:23.983Z,7.50
2018-12-21T03:10:52.551Z,7.30
2018-12-21T03:13:21.129Z,7.57
2018-12-21T03:15:49.695Z,7.27
2018-12-21T03:18:18.424Z,7.67
2018-12-21T03:20:47.694Z,8.17
2018-12-21T03:23:16.576Z,8.27
2018-12-21T03:25:46.066Z,9.70
2018-12-21T03:28:14.617Z,10.13
2018-12-21T03:30:43.323Z,9.40
2018-12-21T03:33:11.949Z,10.27
2018-12-21T03:35:40.648Z,10.77
2018-12-21T03:38:10.214Z,10.50
2018-12-21T03:40:38.767Z,10.57
2018-12-21T03:43:07.394Z,9.70
2018-12-21T03:45:36.036Z,10.70
2018-12-21T03:48:04.689Z,10.07
2018-12-21T03:50:39.401Z,9.10
2018-12-21T03:53:07.995Z,8.93
2018-12-21T03:55:36.920Z,7.90
2018-12-21T03:58:05.478Z,8.17
2018-12-21T04:00:34.102Z,7.17
2018-12-21T04:03:02.688Z,6.97
2018-12-21T04:05:31.759Z,6.97
2018-12-21T04:08:01.210Z,6.27
2018-12-21T04:10:29.783Z,6.60
2018-12-21T04:12:58.359Z,6.33
2018-12-21T04:15:27.597Z,6.33
2018-12-21T04:17:56.425Z,5.47
2018-12-21T04:20:24.968Z,5.80
2018-12-21T04:22:56.280Z,4.97
2018-12-21T04:25:25.244Z,5.03
2018-12-21T04:27:54.416Z,4.47
2018-12-21T04:30:23.439Z,4.37
2018-12-21T04:32:52.093Z,4.33
2018-12-21T04:35:20.998Z,3.93
2018-12-21T04:37:49.511Z,5.60
2018-12-21T04:40:18.882Z,5.60
2018-12-21T04:42:47.923Z,3.60
2018-12-21T04:45:16.491Z,3.70
2018-12-21T04:47:45.542Z,3.30
2018-12-21T04:50:15.015Z,5.23
2018-12-21T04:52:44.007Z,3.00
2018-12-21T04:55:13.428Z,2.80
2018-12-21T04:57:42.048Z,3.10
2018-12-21T05:00:10.817Z,2.80
2018-12-21T05:02:40.352Z,3.00
2018-12-21T05:05:09.200Z,2.97
2018-12-21T05:07:38.538Z,3.00
2018-12-21T05:10:07.941Z,4.10
2018-12-21T05:12:36.639Z,3.10
2018-12-21T05:15:05.651Z,3.10
2018-12-21T05:17:34.195Z,3.43
2018-12-21T05:20:04.151Z,3.67
2018-12-21T05:22:33.391Z,3.90
2018-12-21T05:25:02.686Z,3.67
2018-12-21T05:27:31.347Z,4.70
2018-12-21T05:29:59.993Z,4.30
2018-12-21T05:32:28.601Z,4.97
2018-12-21T05:34:57.308Z,5.27
2018-12-21T05:37:25.851Z,5.77
2018-12-21T05:39:54.841Z,5.30
2018-12-21T05:42:23.413Z,6.37
2018-12-21T05:44:51.989Z,6.07
2018-12-21T05:47:20.575Z,5.47
2018-12-21T05:49:49.462Z,5.10
2018-12-21T05:52:18.070Z,4.60
2018-12-21T05:54:46.603Z,4.50
2018-12-21T05:57:15.184Z,3.60
2018-12-21T05:59:43.924Z,2.70
2018-12-21T06:02:12.999Z,2.87
2018-12-21T06:04:41.688Z,2.90
2018-12-21T06:07:10.698Z,3.17
2018-12-21T06:09:39.413Z,3.00
2018-12-21T06:12:08.083Z,2.70
2018-12-21T06:14:36.732Z,2.63
2018-12-21T06:17:05.421Z,3.10
2018-12-21T06:19:33.987Z,3.10
2018-12-21T06:22:03.026Z,3.80
2018-12-21T06:24:31.649Z,3.60
2018-12-21T06:27:00.374Z,3.70
2018-12-21T06:29:29.846Z,5.00
2018-12-21T06:31:58.591Z,3.10
2018-12-21T06:34:27.436Z,2.93
2018-12-21T06:36:56.450Z,3.43
2018-12-21T06:39:25.387Z,3.97
2018-12-21T06:41:54.248Z,3.47
2018-12-21T06:44:22.804Z,3.80
2018-12-21T06:46:52.433Z,3.70
2018-12-21T06:49:21.010Z,3.50
2018-12-21T06:51:50.151Z,4.47
2018-12-21T06:54:19.282Z,3.87
2018-12-21T06:56:47.770Z,3.50
2018-12-21T06:59:16.410Z,3.00
2018-12-21T07:01:45.323Z,3.23
2018-12-21T07:04:14.050Z,2.60
2018-12-21T07:06:42.573Z,2.33
2018-12-21T07:09:12.632Z,2.70
2018-12-21T07:11:41.996Z,3.00
2018-12-21T07:14:10.686Z,3.03
2018-12-21T07:16:39.582Z,3.17
2018-12-21T07:19:09.241Z,3.17
2018-12-21T07:21:37.976Z,3.50
2018-12-21T07:24:06.779Z,3.27
2018-12-21T07:26:35.418Z,3.70
2018-12-21T07:29:04.166Z,3.73
2018-12-21T07:31:32.777Z,4.10
2018-12-21T07:34:01.370Z,10.33
2018-12-21T07:36:30.273Z,4.07
2018-12-21T07:38:58.896Z,4.33
2018-12-21T07:41:28.135Z,4.20
2018-12-21T07:43:56.885Z,3.50
2018-12-21T07:46:25.732Z,6.07
2018-12-21T07:49:01.553Z,2.27
2018-12-21T07:51:30.497Z,1.80
2018-12-21T07:53:59.363Z,2.20
2018-12-21T07:56:34.905Z,2.37
2018-12-21T07:59:03.905Z,1.30
2018-12-21T08:01:33.335Z,1.07
2018-12-21T08:04:02.532Z,1.37
2018-12-21T08:06:31.384Z,2.50
2018-12-21T08:08:59.977Z,1.20
2018-12-21T08:11:28.592Z,3.13
2018-12-21T08:13:58.320Z,1.57
2018-12-21T08:16:27.394Z,0.90
2018-12-21T08:18:55.958Z,2.67
2018-12-21T08:21:24.811Z,1.17
2018-12-21T08:23:54.109Z,2.43
2018-12-21T08:26:22.664Z,2.07
2018-12-21T08:28:52.389Z,1.57
2018-12-21T08:31:21.308Z,1.10
2018-12-21T08:33:50.277Z,1.23
2018-12-21T08:36:19.545Z,1.47
2018-12-21T08:38:50.309Z,2.03
2018-12-21T08:41:19.319Z,2.17
2018-12-21T08:43:48.643Z,1.80
2018-12-21T08:46:17.380Z,0.70
2018-12-21T08:48:46.162Z,1.33
2018-12-21T08:51:14.910Z,1.73
2018-12-21T08:53:52.521Z,1.53
2018-12-21T08:56:20.012Z,2.03
2018-12-21T08:58:49.716Z,1.20
2018-12-21T09:01:20.253Z,1.47
2018-12-21T09:03:49.258Z,1.13
2018-12-21T09:06:18.845Z,1.80
2018-12-21T09:08:47.752Z,1.80
2018-12-21T09:11:17.320Z,1.10
2018-12-21T09:13:47.405Z,1.13
2018-12-21T09:16:17.244Z,0.97
2018-12-21T09:18:47.025Z,3.50
2018-12-21T09:21:16.878Z,2.23
2018-12-21T09:23:47.153Z,1.03
2018-12-21T09:26:16.362Z,1.43
2018-12-21T09:28:45.390Z,1.13
2018-12-21T09:31:17.669Z,1.63
2018-12-21T09:33:50.295Z,3.23
2018-12-21T09:36:20.097Z,1.67
2018-12-21T09:38:48.978Z,2.03
2018-12-21T09:41:18.713Z,1.83
2018-12-21T09:43:47.398Z,2.97
2018-12-21T09:46:16.033Z,1.90
2018-12-21T09:48:54.505Z,2.83
2018-12-21T09:51:23.489Z,5.47
2018-12-21T09:53:52.137Z,3.17
2018-12-21T09:56:20.773Z,2.30
2018-12-21T09:58:50.315Z,3.33
2018-12-21T10:01:18.840Z,5.17
2018-12-21T10:03:47.627Z,2.97
2018-12-21T10:06:17.009Z,6.03
2018-12-21T10:08:45.966Z,6.70
2018-12-21T10:11:15.623Z,5.03
2018-12-21T10:13:44.242Z,4.10
2018-12-21T10:16:13.592Z,3.43
2018-12-21T10:18:42.320Z,4.57
2018-12-21T10:21:11.701Z,5.27
2018-12-21T10:23:40.544Z,1.87
2018-12-21T10:26:09.731Z,3.87
2018-12-21T10:28:38.536Z,4.33
2018-12-21T10:31:07.354Z,3.97
2018-12-21T10:33:37.320Z,6.37
2018-12-21T10:36:06.135Z,5.17
2018-12-21T10:38:36.124Z,6.57
2018-12-21T10:41:04.752Z,5.97
2018-12-21T10:43:33.731Z,5.63
2018-12-21T10:46:04.226Z,9.57
2018-12-21T10:48:32.962Z,9.63
2018-12-21T10:51:01.926Z,9.93
2018-12-21T10:53:30.745Z,5.83
2018-12-21T10:55:59.873Z,8.60
2018-12-21T10:58:28.522Z,10.90
2018-12-21T11:00:57.177Z,9.10
2018-12-21T11:03:26.762Z,7.83
2018-12-21T11:05:56.432Z,10.07
2018-12-21T11:08:25.173Z,9.60
2018-12-21T11:10:53.991Z,11.97
2018-12-21T11:13:22.778Z,14.37
2018-12-21T11:15:52.400Z,15.13
2018-12-21T11:18:21.854Z,17.17
2018-12-21T11:20:51.005Z,10.47
2018-12-21T11:23:20.010Z,10.17
2018-12-21T11:25:48.862Z,21.73
2018-12-21T11:28:25.163Z,16.13
2018-12-21T11:30:51.224Z,15.97
2018-12-21T11:33:20.656Z,18.13
2018-12-21T11:35:49.410Z,14.97
2018-12-21T11:38:18.471Z,13.93
2018-12-21T11:40:47.205Z,18.67
2018-12-21T11:43:16.896Z,17.40
2018-12-21T11:45:45.744Z,22.03
2018-12-21T11:48:15.263Z,23.73
2018-12-21T11:50:45.245Z,22.50
2018-12-21T11:53:14.818Z,25.50
2018-12-21T11:55:43.915Z,24.73
2018-12-21T11:58:12.608Z,22.13
2018-12-21T12:00:41.386Z,27.40
2018-12-21T12:03:10.463Z,21.30
2018-12-21T12:05:39.265Z,29.00
2018-12-21T12:08:08.948Z,24.70
2018-12-21T12:10:38.042Z,28.77
2018-12-21T12:13:06.755Z,24.57
2018-12-21T12:15:35.696Z,18.30
2018-12-21T12:18:04.594Z,21.90
2018-12-21T12:20:33.356Z,28.07
2018-12-21T12:23:02.678Z,27.87
2018-12-21T12:25:32.388Z,30.70
2018-12-21T12:28:01.145Z,27.27
2018-12-21T12:30:29.838Z,28.10
2018-12-21T12:33:00.042Z,24.73
2018-12-21T12:35:28.831Z,29.27
2018-12-21T12:37:57.723Z,21.20
2018-12-21T12:40:26.880Z,31.73
2018-12-21T12:42:55.531Z,23.60
2018-12-21T12:45:24.462Z,20.63
2018-12-21T12:47:53.071Z,29.77
2018-12-21T12:50:22.170Z,30.13
2018-12-21T12:52:51.396Z,34.03
2018-12-21T12:55:21.125Z,30.13
2018-12-21T12:57:55.199Z,34.90
2018-12-21T13:00:23.856Z,27.87
2018-12-21T13:02:52.482Z,27.63
2018-12-21T13:05:21.451Z,30.27
2018-12-21T13:07:50.064Z,32.77
2018-12-21T13:10:19.257Z,26.20
2018-12-21T13:12:47.908Z,37.17
2018-12-21T13:15:16.573Z,31.47
2018-12-21T13:17:45.446Z,27.63
2018-12-21T13:20:14.189Z,29.67
2018-12-21T13:22:42.919Z,27.60
2018-12-21T13:25:11.967Z,25.57
2018-12-21T13:27:40.660Z,26.80
2018-12-21T13:30:12.056Z,32.83
2018-12-21T13:32:40.940Z,32.13
2018-12-21T13:35:09.722Z,24.63
2018-12-21T13:37:38.631Z,30.10
2018-12-21T13:40:10.720Z,34.03
2018-12-21T13:42:39.420Z,30.67
2018-12-21T13:45:10.430Z,37.00
2018-12-21T13:47:39.043Z,35.40
2018-12-21T13:50:12.021Z,28.20
2018-12-21T13:52:43.142Z,39.60
2018-12-21T13:55:20.000Z,37.63
2018-12-21T13:57:43.452Z,38.27
2018-12-21T14:00:12.351Z,37.30
2018-12-21T14:02:41.869Z,36.83
2018-12-21T14:05:10.646Z,39.93
2018-12-21T14:07:39.226Z,37.90
2018-12-21T14:10:11.294Z,33.90
2018-12-21T14:12:39.929Z,37.73
2018-12-21T14:15:10.288Z,28.90
2018-12-21T14:17:38.981Z,42.43
2018-12-21T14:20:10.941Z,35.50
2018-12-21T14:22:39.993Z,34.40
2018-12-21T14:25:09.714Z,34.00
2018-12-21T14:27:38.970Z,32.20
2018-12-21T14:30:10.397Z,27.17
2018-12-21T14:32:39.108Z,37.40
2018-12-21T14:35:08.593Z,37.20
2018-12-21T14:37:37.500Z,32.00
2018-12-21T14:40:06.678Z,38.20
2018-12-21T14:42:36.618Z,40.47
2018-12-21T14:45:06.535Z,30.77
2018-12-21T14:47:36.253Z,43.53
2018-12-21T14:50:07.811Z,36.27
2018-12-21T14:52:36.790Z,37.00
2018-12-21T14:55:06.623Z,40.50
2018-12-21T14:57:35.668Z,37.40
2018-12-21T15:00:07.194Z,41.73
2018-12-21T15:02:35.890Z,37.33
2018-12-21T15:05:04.809Z,41.37
2018-12-21T15:07:33.795Z,38.57
2018-12-21T15:10:03.101Z,42.50
2018-12-21T15:12:32.200Z,32.90
2018-12-21T15:15:01.986Z,35.93
2018-12-21T15:17:31.989Z,36.57
2018-12-21T15:20:00.643Z,38.87
2018-12-21T15:22:29.590Z,37.43
2018-12-21T15:24:58.200Z,44.13
2018-12-21T15:27:27.254Z,34.57
2018-12-21T15:29:56.068Z,36.77
2018-12-21T15:32:25.406Z,40.60
2018-12-21T15:34:54.105Z,38.57
2018-12-21T15:37:22.781Z,31.73
2018-12-21T15:39:52.034Z,43.33
2018-12-21T15:42:21.829Z,42.90
2018-12-21T15:44:50.403Z,37.90
2018-12-21T15:47:19.166Z,38.23
2018-12-21T15:49:47.971Z,33.90
2018-12-21T15:52:17.372Z,37.07
2018-12-21T15:54:49.189Z,36.33
2018-12-21T15:57:17.754Z,33.13
2018-12-21T15:59:48.046Z,39.40
2018-12-21T16:02:17.316Z,42.23
2018-12-21T16:04:46.082Z,35.33
2018-12-21T16:07:15.588Z,35.57
2018-12-21T16:09:44.236Z,42.53
2018-12-21T16:12:13.030Z,39.80
2018-12-21T16:14:42.103Z,33.80
2018-12-21T16:17:11.038Z,48.20
2018-12-21T16:19:39.974Z,34.80
2018-12-21T16:22:08.690Z,35.73
2018-12-21T16:25:03.469Z,41.03
2018-12-21T16:27:56.869Z,42.87
2018-12-21T16:33:20.533Z,36.33
2018-12-21T16:35:49.687Z,34.47
2018-12-21T16:38:18.919Z,38.00
2018-12-21T16:40:49.139Z,44.07
2018-12-21T16:43:17.824Z,36.63
2018-12-21T16:45:47.311Z,38.53
2018-12-21T16:48:15.986Z,45.97
2018-12-21T16:50:44.743Z,39.70
2018-12-21T16:53:13.405Z,46.23
2018-12-21T16:55:42.037Z,28.87
2018-12-21T16:58:10.711Z,34.00
2018-12-21T17:00:39.335Z,41.17
2018-12-21T17:03:15.501Z,31.13
2018-12-21T17:05:39.983Z,48.93
2018-12-21T17:08:09.059Z,39.67
2018-12-21T17:10:40.014Z,38.83
2018-12-21T17:13:09.415Z,41.87
2018-12-21T17:15:38.364Z,36.10
2018-12-21T17:18:08.013Z,39.77
2018-12-21T17:20:36.668Z,41.50
2018-12-21T17:23:06.059Z,43.40
2018-12-21T17:25:35.418Z,33.80
2018-12-21T17:28:04.168Z,32.30
2018-12-21T17:30:33.375Z,35.80
2018-12-21T17:33:02.033Z,35.67
2018-12-21T17:35:31.704Z,35.63
2018-12-21T17:38:00.377Z,32.63
2018-12-21T17:40:29.014Z,32.90
2018-12-21T17:42:58.805Z,35.47
2018-12-21T17:45:28.258Z,36.43
2018-12-21T17:47:56.868Z,40.30
2018-12-21T17:50:26.259Z,41.37
2018-12-21T17:52:55.641Z,35.50
2018-12-21T17:55:25.400Z,37.93
2018-12-21T17:57:54.198Z,42.83
2018-12-21T18:00:22.910Z,45.03
2018-12-21T18:03:00.625Z,40.87
2018-12-21T18:05:36.228Z,30.63
2018-12-21T18:08:07.305Z,37.90
2018-12-21T18:10:35.916Z,34.80
2018-12-21T18:13:04.750Z,33.93
2018-12-21T18:15:33.657Z,41.23
2018-12-21T18:18:03.055Z,37.80
2018-12-21T18:20:31.578Z,40.83
2018-12-21T18:23:02.511Z,43.83
2018-12-21T18:25:32.099Z,39.87
2018-12-21T18:28:10.523Z,39.83
2018-12-21T18:30:39.212Z,47.33
2018-12-21T18:33:10.836Z,42.83
2018-12-21T18:35:40.079Z,43.00
2018-12-21T18:38:13.018Z,42.47
2018-12-21T18:40:42.536Z,42.73
2018-12-21T18:43:11.926Z,38.47
2018-12-21T18:45:41.043Z,36.33
2018-12-21T18:48:10.542Z,42.83
2018-12-21T18:50:40.087Z,37.90
2018-12-21T18:53:08.683Z,38.60
2018-12-21T18:55:37.706Z,42.57
2018-12-21T18:58:06.286Z,37.30
2018-12-21T19:00:36.556Z,41.57
2018-12-21T19:03:05.257Z,41.30
2018-12-21T19:05:34.288Z,45.30
2018-12-21T19:08:03.133Z,38.17
2018-12-21T19:10:32.293Z,39.70
2018-12-21T19:13:02.016Z,41.70
2018-12-21T19:15:31.249Z,42.70
2018-12-21T19:18:00.228Z,40.67
2018-12-21T19:20:29.472Z,45.23
2018-12-21T19:22:58.152Z,31.57
2018-12-21T19:25:26.830Z,34.87
2018-12-21T19:27:55.555Z,37.93
2018-12-21T19:30:25.274Z,45.80
2018-12-21T19:32:54.035Z,47.33
2018-12-21T19:35:27.667Z,44.47
2018-12-21T19:37:53.440Z,46.80
2018-12-21T19:40:22.161Z,42.33
2018-12-21T19:42:50.677Z,40.33
2018-12-21T19:45:19.637Z,52.40
2018-12-21T19:47:48.670Z,39.77
2018-12-21T19:50:17.657Z,29.73
2018-12-21T19:52:46.340Z,46.23
2018-12-21T19:55:26.321Z,42.37
2018-12-21T19:57:56.074Z,37.73
2018-12-21T20:02:39.481Z,42.00
2018-12-21T20:05:08.842Z,40.50
2018-12-21T20:07:39.581Z,40.60
2018-12-21T20:10:09.416Z,45.43
2018-12-21T20:12:39.474Z,33.60
2018-12-21T20:15:11.104Z,34.57
2018-12-21T20:17:41.127Z,39.23
2018-12-21T20:20:12.121Z,42.70
2018-12-21T20:22:42.359Z,35.80
2018-12-21T20:25:13.268Z,35.87
2018-12-21T20:27:42.919Z,34.73
2018-12-21T20:30:14.981Z,41.23
2018-12-21T20:32:43.631Z,39.47
2018-12-21T20:35:12.677Z,27.27
2018-12-21T20:37:47.731Z,32.87
2018-12-21T20:40:16.633Z,41.50
2018-12-21T20:42:45.580Z,36.73
2018-12-21T20:45:14.313Z,33.77
2018-12-21T20:47:43.536Z,34.77
2018-12-21T20:50:16.908Z,32.13
2018-12-21T20:52:46.200Z,33.00
2018-12-21T20:55:14.777Z,37.97
2018-12-21T20:57:45.791Z,32.13
2018-12-21T21:00:16.121Z,39.60
2018-12-21T21:02:45.197Z,33.67
2018-12-21T21:05:14.350Z,29.47
2018-12-21T21:07:50.473Z,34.47
2018-12-21T21:10:27.635Z,38.37
2018-12-21T21:13:09.582Z,31.30
2018-12-21T21:15:39.594Z,32.33
2018-12-21T21:18:09.804Z,44.40
2018-12-21T21:20:39.750Z,35.43
2018-12-21T21:23:10.645Z,33.27
2018-12-21T21:25:41.087Z,35.00
2018-12-21T21:28:09.670Z,28.40
2018-12-21T21:30:39.462Z,30.27
2018-12-21T21:33:08.830Z,34.73
2018-12-21T21:35:37.492Z,36.60
2018-12-21T21:38:06.149Z,35.40
2018-12-21T21:40:35.296Z,33.83
2018-12-21T21:43:04.025Z,38.83
2018-12-21T21:45:33.092Z,38.70
2018-12-21T21:48:01.845Z,30.47
2018-12-21T21:50:31.900Z,33.23
2018-12-21T21:53:00.546Z,33.20
2018-12-21T21:55:29.427Z,34.87
2018-12-21T21:57:58.334Z,31.63
2018-12-21T22:00:29.183Z,29.77
2018-12-21T22:02:58.003Z,42.73
2018-12-21T22:05:27.252Z,35.43
2018-12-21T22:07:56.063Z,36.23
2018-12-21T22:10:25.024Z,35.87
2018-12-21T22:13:01.865Z,32.97
2018-12-21T22:15:30.607Z,34.97
2018-12-21T22:17:59.370Z,37.03
2018-12-21T22:20:28.146Z,41.17
2018-12-21T22:22:56.752Z,35.90
2018-12-21T22:25:25.547Z,36.50
2018-12-21T22:27:55.115Z,39.37
2018-12-21T22:30:23.765Z,36.30
2018-12-21T22:32:52.698Z,38.13
2018-12-21T22:35:21.321Z,37.97
2018-12-21T22:37:50.361Z,36.13
2018-12-21T22:40:18.974Z,37.73
2018-12-21T22:42:47.535Z,44.17
2018-12-21T22:45:16.941Z,37.63
2018-12-21T22:47:45.419Z,41.93
2018-12-21T22:50:14.159Z,41.17
2018-12-21T22:52:42.791Z,42.57
2018-12-21T22:55:11.418Z,40.27
2018-12-21T22:57:39.933Z,34.40
2018-12-21T23:00:17.049Z,35.27
2018-12-21T23:02:46.377Z,37.07
2018-12-21T23:05:15.123Z,37.60
2018-12-21T23:07:44.403Z,38.70
2018-12-21T23:10:13.236Z,40.30
2018-12-21T23:12:42.052Z,40.27
2018-12-21T23:15:10.735Z,29.70
2018-12-21T23:17:39.933Z,44.13
2018-12-21T23:20:08.583Z,35.67
2018-12-21T23:22:37.694Z,34.40
2018-12-21T23:25:07.103Z,39.73
2018-12-21T23:27:36.620Z,39.37
2018-12-21T23:30:05.998Z,34.37
2018-12-21T23:32:34.930Z,31.70
2018-12-21T23:35:04.597Z,39.43
2018-12-21T23:37:33.264Z,32.90
2018-12-21T23:40:01.906Z,31.50
2018-12-21T23:42:31.425Z,37.53
2018-12-21T23:45:00.127Z,32.10
2018-12-21T23:47:29.283Z,42.80
2018-12-21T23:49:58.017Z,36.90
2018-12-21T23:52:27.268Z,32.47
2018-12-21T23:54:55.882Z,32.37
2018-12-21T23:57:24.553Z,29.23
2018-12-21T23:59:53.320Z,22.70
